Terminal Aerodrome Forecast
Issued by NWS

Home | Current Version | Previous Version | Text Only | Print | Product List | Glossary On
Versions: 1 2 3 4 5 6 7 8 9 10 11 12 13 14 15 16
000
FTUS43 KDLH 271723
TAFHIB
TAF
KHIB 271723Z 2718/2818 33010G17KT P6SM OVC020
     FM280000 31007KT P6SM VCSH OVC015
     FM280600 31006KT P6SM VCSH OVC009
     FM281200 32009KT P6SM OVC015
     FM281500 32010G17KT P6SM OVC020=

USA.gov is the U.S. government's official web portal to all federal, state and local government web resources and services.